Time;durP1;ratioP1;P1;durP2;ratioP2;P2;SDS_P1;SDS_P2;PMS_P1;PMS_P2;Temp;Humidity;BMP_temperature;BMP_pressure;BME280_temperature;BME280_humidity;BME280_pressure;Samples;Min_cycle;Max_cycle;Signal;HPM_P1;HPM_P2
2023/03/07 00:01:24;;;;;;;7.75;1.10;;;;;;;;;;4976855;28;20041;-74
2023/03/07 00:03:50;;;;;;;10.20;1.27;;;;;;;;;;4975012;28;20026;-74
2023/03/07 00:06:17;;;;;;;6.80;1.25;;;;;;;;;;4975100;28;20049;-74
2023/03/07 00:08:43;;;;;;;12.18;1.10;;;;;;;;;;4965198;28;20045;-74
2023/03/07 00:11:09;;;;;;;5.70;0.93;;;;;;;;;;4979034;28;20046;-74
2023/03/07 00:13:37;;;;;;;15.63;1.52;;;;;;;;;;4959712;28;20055;-74
2023/03/07 00:16:04;;;;;;;14.88;2.38;;;;;;;;;;4975913;28;20056;-74
2023/03/07 00:18:30;;;;;;;13.93;1.63;;;;;;;;;;4979774;28;20039;-73
2023/03/07 00:20:59;;;;;;;12.68;1.25;;;;;;;;;;4975995;28;20031;-74
2023/03/07 00:23:25;;;;;;;9.20;1.27;;;;;;;;;;4975660;28;20038;-74
2023/03/07 00:26:01;;;;;;;17.08;1.40;;;;;;;;;;4975955;28;20026;-74
2023/03/07 00:28:27;;;;;;;12.20;1.55;;;;;;;;;;4980620;28;20049;-74
2023/03/07 00:30:54;;;;;;;8.15;1.95;;;;;;;;;;4964144;28;20364;-74
2023/03/07 00:33:20;;;;;;;10.98;1.92;;;;;;;;;;4979514;28;20022;-75
2023/03/07 00:35:54;;;;;;;14.52;1.48;;;;;;;;;;4981256;28;20085;-73
2023/03/07 00:38:20;;;;;;;7.57;1.40;;;;;;;;;;4978113;28;20101;-74
2023/03/07 00:40:46;;;;;;;12.85;1.92;;;;;;;;;;4978992;28;20117;-74
2023/03/07 00:43:12;;;;;;;13.65;1.83;;;;;;;;;;4978885;28;20034;-74
2023/03/07 00:45:38;;;;;;;10.68;1.35;;;;;;;;;;4961249;28;20339;-74
2023/03/07 00:48:05;;;;;;;12.43;1.95;;;;;;;;;;4980798;28;20454;-74
2023/03/07 00:50:31;;;;;;;9.20;1.83;;;;;;;;;;4978353;28;20110;-73
2023/03/07 00:52:57;;;;;;;11.65;1.65;;;;;;;;;;4973298;28;20034;-74
2023/03/07 00:55:23;;;;;;;14.05;2.03;;;;;;;;;;4975523;28;20041;-75
2023/03/07 00:57:49;;;;;;;20.83;2.22;;;;;;;;;;4980176;28;20041;-75
2023/03/07 01:00:15;;;;;;;16.45;2.45;;;;;;;;;;4956213;28;20077;-75
2023/03/07 01:02:41;;;;;;;20.40;2.53;;;;;;;;;;4978897;28;20418;-74
2023/03/07 01:05:08;;;;;;;17.25;2.67;;;;;;;;;;4974898;28;20368;-74
2023/03/07 01:07:34;;;;;;;14.43;1.58;;;;;;;;;;4976811;28;20045;-74
2023/03/07 01:10:00;;;;;;;13.93;1.63;;;;;;;;;;4977167;28;20038;-74
2023/03/07 01:12:26;;;;;;;18.55;2.38;;;;;;;;;;4979669;28;20042;-74
2023/03/07 01:14:52;;;;;;;19.58;3.00;;;;;;;;;;4962122;28;20039;-73
2023/03/07 01:17:18;;;;;;;20.08;2.10;;;;;;;;;;4977117;28;20038;-74
2023/03/07 01:19:44;;;;;;;17.05;1.73;;;;;;;;;;4980721;28;20120;-74
2023/03/07 01:22:10;;;;;;;20.05;2.10;;;;;;;;;;4977853;28;20034;-73
2023/03/07 01:24:36;;;;;;;14.27;2.22;;;;;;;;;;4981511;28;20368;-73
2023/03/07 01:27:02;;;;;;;19.98;1.98;;;;;;;;;;4981062;28;20105;-75
2023/03/07 01:29:28;;;;;;;18.42;2.15;;;;;;;;;;4977374;28;20046;-74
2023/03/07 01:31:56;;;;;;;17.35;2.00;;;;;;;;;;4977711;28;20062;-75
2023/03/07 01:34:22;;;;;;;15.80;1.75;;;;;;;;;;4980285;28;20034;-74
2023/03/07 01:36:48;;;;;;;18.98;2.80;;;;;;;;;;4980337;28;20084;-73
2023/03/07 01:39:16;;;;;;;14.43;1.83;;;;;;;;;;4984097;28;20041;-73
2023/03/07 01:41:42;;;;;;;12.18;1.73;;;;;;;;;;4983488;28;22117;-73
2023/03/07 01:44:16;;;;;;;15.00;2.10;;;;;;;;;;4981357;28;20033;-74
2023/03/07 01:46:44;;;;;;;22.15;2.65;;;;;;;;;;4982915;28;20041;-74
2023/03/07 01:49:14;;;;;;;14.45;1.55;;;;;;;;;;4977228;28;20539;-74
2023/03/07 01:51:43;;;;;;;12.85;1.83;;;;;;;;;;4979426;28;20035;-74
2023/03/07 01:54:10;;;;;;;13.60;1.83;;;;;;;;;;4979510;28;20070;-74
2023/03/07 01:56:36;;;;;;;12.82;1.67;;;;;;;;;;4978586;28;20117;-73
2023/03/07 01:59:03;;;;;;;12.20;2.05;;;;;;;;;;4979486;28;20314;-73
2023/03/07 02:01:29;;;;;;;19.85;1.90;;;;;;;;;;4981606;28;20054;-74
2023/03/07 02:04:01;;;;;;;12.80;1.92;;;;;;;;;;4978153;28;20030;-74
2023/03/07 02:06:30;;;;;;;17.00;1.75;;;;;;;;;;4982449;28;20065;-73
2023/03/07 02:08:56;;;;;;;8.50;1.77;;;;;;;;;;4982308;28;20586;-74
2023/03/07 02:11:23;;;;;;;14.88;1.27;;;;;;;;;;4979792;28;20149;-73
2023/03/07 02:13:49;;;;;;;10.20;1.35;;;;;;;;;;4981811;28;20034;-75
2023/03/07 02:16:15;;;;;;;36.35;2.65;;;;;;;;;;4982508;28;20046;-73
2023/03/07 02:18:45;;;;;;;17.77;2.30;;;;;;;;;;4983674;28;20034;-74
2023/03/07 02:21:30;;;;;;;10.90;1.08;;;;;;;;;;4980387;28;20105;-74
2023/03/07 02:24:00;;;;;;;18.70;1.88;;;;;;;;;;4973783;28;20035;-74
2023/03/07 02:26:36;;;;;;;9.98;1.20;;;;;;;;;;4980912;28;20069;-73
2023/03/07 02:29:02;;;;;;;11.85;1.77;;;;;;;;;;4982462;28;20062;-74
2023/03/07 02:31:28;;;;;;;8.25;1.27;;;;;;;;;;4978304;28;20073;-73
2023/03/07 02:33:54;;;;;;;6.03;1.10;;;;;;;;;;4980203;28;20026;-74
2023/03/07 02:36:22;;;;;;;11.38;1.23;;;;;;;;;;4965662;28;20039;-73
2023/03/07 02:38:50;;;;;;;17.45;2.03;;;;;;;;;;4980046;28;20149;-74
2023/03/07 02:41:19;;;;;;;12.43;1.60;;;;;;;;;;4979737;28;20023;-74
2023/03/07 02:43:45;;;;;;;12.88;1.38;;;;;;;;;;4978782;28;20023;-74
2023/03/07 02:46:11;;;;;;;9.32;1.25;;;;;;;;;;4980777;28;20035;-74
2023/03/07 02:48:37;;;;;;;19.20;2.35;;;;;;;;;;4980681;28;20037;-74
2023/03/07 02:51:03;;;;;;;14.85;1.85;;;;;;;;;;4979675;28;20042;-74
2023/03/07 02:53:29;;;;;;;10.52;1.77;;;;;;;;;;4978446;28;20764;-74
2023/03/07 02:55:55;;;;;;;10.10;0.88;;;;;;;;;;4980325;28;20070;-74
2023/03/07 02:58:21;;;;;;;14.55;1.50;;;;;;;;;;4977399;28;20086;-74
2023/03/07 03:00:47;;;;;;;11.73;1.50;;;;;;;;;;4976026;28;20030;-74
2023/03/07 03:03:13;;;;;;;6.85;0.95;;;;;;;;;;4979376;28;20379;-74
2023/03/07 03:05:39;;;;;;;12.40;1.50;;;;;;;;;;4982121;28;20035;-75
2023/03/07 03:08:06;;;;;;;18.85;1.30;;;;;;;;;;4971004;28;20129;-75
2023/03/07 03:10:32;;;;;;;16.40;1.60;;;;;;;;;;4977963;28;20069;-75
2023/03/07 03:12:58;;;;;;;10.35;1.95;;;;;;;;;;4977493;28;20038;-75
2023/03/07 03:15:24;;;;;;;12.10;2.05;;;;;;;;;;4980553;28;20141;-74
2023/03/07 03:17:52;;;;;;;8.32;1.40;;;;;;;;;;4982608;28;20034;-75
2023/03/07 03:20:18;;;;;;;7.63;1.73;;;;;;;;;;4965806;28;20066;-75
2023/03/07 03:22:44;;;;;;;12.13;2.72;;;;;;;;;;4980410;28;20077;-74
2023/03/07 03:25:12;;;;;;;11.98;1.50;;;;;;;;;;4980655;28;20069;-74
2023/03/07 03:27:38;;;;;;;11.18;1.25;;;;;;;;;;4977774;28;20041;-74
2023/03/07 03:30:08;;;;;;;10.68;1.70;;;;;;;;;;4978914;28;20452;-74
2023/03/07 03:32:36;;;;;;;12.05;0.85;;;;;;;;;;4977828;28;20023;-74
2023/03/07 03:35:02;;;;;;;7.45;1.92;;;;;;;;;;4977479;28;20324;-74
2023/03/07 03:37:28;;;;;;;15.88;1.83;;;;;;;;;;4974121;28;20051;-74
2023/03/07 03:39:55;;;;;;;6.60;1.10;;;;;;;;;;4978998;28;20038;-74
2023/03/07 03:42:21;;;;;;;15.90;2.05;;;;;;;;;;4980925;28;20026;-74
2023/03/07 03:44:47;;;;;;;9.65;1.20;;;;;;;;;;4975973;28;20030;-76
2023/03/07 03:47:13;;;;;;;7.70;1.58;;;;;;;;;;4979087;28;20388;-76
2023/03/07 03:49:39;;;;;;;10.35;2.17;;;;;;;;;;4965612;28;20090;-75
2023/03/07 03:52:05;;;;;;;11.38;1.45;;;;;;;;;;4975484;28;20062;-75
2023/03/07 03:54:31;;;;;;;8.68;1.65;;;;;;;;;;4975290;28;20058;-74
2023/03/07 03:56:57;;;;;;;11.57;1.17;;;;;;;;;;4975225;28;20141;-75
2023/03/07 03:59:23;;;;;;;15.90;1.55;;;;;;;;;;4980491;28;20104;-74
2023/03/07 04:01:49;;;;;;;9.70;1.70;;;;;;;;;;4981053;28;20394;-75
2023/03/07 04:04:15;;;;;;;12.43;2.65;;;;;;;;;;4979923;28;20035;-74
2023/03/07 04:06:41;;;;;;;12.68;1.52;;;;;;;;;;4974016;28;20026;-73
2023/03/07 04:09:08;;;;;;;12.18;1.23;;;;;;;;;;4980712;28;20570;-74
2023/03/07 04:11:34;;;;;;;13.18;2.20;;;;;;;;;;4977244;28;20039;-74
2023/03/07 04:14:00;;;;;;;11.88;2.22;;;;;;;;;;4981183;28;20602;-74
2023/03/07 04:16:26;;;;;;;11.15;2.35;;;;;;;;;;4975740;28;20420;-73
2023/03/07 04:18:52;;;;;;;11.70;1.52;;;;;;;;;;4959645;28;20502;-74
2023/03/07 04:21:19;;;;;;;15.48;1.70;;;;;;;;;;4975487;28;20368;-74
2023/03/07 04:23:48;;;;;;;10.52;0.88;;;;;;;;;;4977025;28;20525;-73
2023/03/07 04:26:15;;;;;;;6.80;0.90;;;;;;;;;;4972143;28;20553;-73
2023/03/07 04:28:43;;;;;;;4.50;1.13;;;;;;;;;;4976468;28;20138;-74
2023/03/07 04:31:13;;;;;;;10.82;1.33;;;;;;;;;;4961651;28;20038;-74
2023/03/07 04:33:40;;;;;;;12.25;2.03;;;;;;;;;;4980854;28;20034;-73
2023/03/07 04:36:06;;;;;;;5.88;1.15;;;;;;;;;;4978465;28;20520;-73
2023/03/07 04:38:32;;;;;;;8.73;1.10;;;;;;;;;;4975826;28;20079;-73
2023/03/07 04:40:58;;;;;;;16.55;1.48;;;;;;;;;;4980438;28;20125;-74
2023/03/07 04:43:24;;;;;;;10.90;1.63;;;;;;;;;;4975688;28;20046;-74
2023/03/07 04:45:52;;;;;;;8.45;1.98;;;;;;;;;;4975214;28;20031;-73
2023/03/07 04:48:18;;;;;;;7.47;0.88;;;;;;;;;;4980883;28;20038;-74
2023/03/07 04:50:44;;;;;;;9.65;1.20;;;;;;;;;;4964984;28;20039;-74
2023/03/07 04:53:10;;;;;;;12.80;1.65;;;;;;;;;;4972338;28;20047;-71
2023/03/07 04:55:36;;;;;;;28.38;6.20;;;;;;;;;;4977630;28;20438;-72
2023/03/07 04:58:02;;;;;;;23.83;5.35;;;;;;;;;;4962920;28;20415;-74
2023/03/07 05:00:28;;;;;;;12.52;1.75;;;;;;;;;;4965334;28;20092;-75
2023/03/07 05:03:00;;;;;;;11.20;2.17;;;;;;;;;;4960399;28;20027;-74
2023/03/07 05:05:26;;;;;;;10.65;1.77;;;;;;;;;;4980719;28;20076;-74
2023/03/07 05:07:53;;;;;;;9.93;1.40;;;;;;;;;;4981216;28;20038;-75
2023/03/07 05:10:19;;;;;;;12.43;1.40;;;;;;;;;;4982417;28;20035;-75
2023/03/07 05:12:45;;;;;;;13.48;1.17;;;;;;;;;;4985862;28;20046;-75
2023/03/07 05:15:11;;;;;;;6.72;1.75;;;;;;;;;;4982827;28;20097;-74
2023/03/07 05:17:37;;;;;;;5.32;1.35;;;;;;;;;;4983960;28;20486;-74
2023/03/07 05:20:03;;;;;;;12.27;1.58;;;;;;;;;;4981250;28;20716;-74
2023/03/07 05:22:29;;;;;;;25.02;1.55;;;;;;;;;;4986461;28;20034;-75
2023/03/07 05:24:57;;;;;;;13.68;1.48;;;;;;;;;;4964695;28;20035;-74
2023/03/07 05:27:23;;;;;;;13.57;2.05;;;;;;;;;;4975809;28;20479;-74
2023/03/07 05:29:49;;;;;;;8.93;2.28;;;;;;;;;;4959881;28;20094;-75
2023/03/07 05:32:15;;;;;;;19.48;1.75;;;;;;;;;;4987552;28;20044;-74
2023/03/07 05:34:41;;;;;;;12.07;1.95;;;;;;;;;;4983845;28;20033;-74
2023/03/07 05:37:07;;;;;;;13.63;1.45;;;;;;;;;;4979611;28;20066;-75
2023/03/07 05:39:33;;;;;;;11.05;1.33;;;;;;;;;;4961987;28;20105;-74
2023/03/07 05:41:59;;;;;;;8.77;1.67;;;;;;;;;;4981550;28;20065;-74
2023/03/07 05:44:25;;;;;;;16.83;2.70;;;;;;;;;;4980110;28;20061;-74
2023/03/07 05:46:51;;;;;;;7.90;1.65;;;;;;;;;;4977260;28;20435;-74
2023/03/07 05:49:18;;;;;;;19.08;3.00;;;;;;;;;;4979232;28;20439;-75
2023/03/07 05:51:44;;;;;;;17.10;1.52;;;;;;;;;;4981246;28;20046;-75
2023/03/07 05:54:10;;;;;;;16.27;2.20;;;;;;;;;;4963198;28;20407;-75
2023/03/07 05:56:36;;;;;;;11.93;1.55;;;;;;;;;;4966315;28;20113;-74
2023/03/07 05:59:03;;;;;;;12.75;1.30;;;;;;;;;;4961598;28;20046;-74
2023/03/07 06:01:29;;;;;;;5.13;1.08;;;;;;;;;;4964298;28;20026;-75
2023/03/07 06:03:55;;;;;;;10.95;2.75;;;;;;;;;;4955293;28;20118;-73
2023/03/07 06:06:21;;;;;;;7.03;1.33;;;;;;;;;;4961419;28;20046;-74
2023/03/07 06:08:47;;;;;;;7.32;0.80;;;;;;;;;;4960297;28;20050;-74
2023/03/07 06:11:13;;;;;;;5.50;1.27;;;;;;;;;;4957883;28;20047;-74
2023/03/07 06:13:39;;;;;;;7.70;1.08;;;;;;;;;;4965464;28;20022;-75
2023/03/07 06:16:05;;;;;;;7.28;1.15;;;;;;;;;;4961184;28;20134;-75
2023/03/07 06:18:31;;;;;;;8.52;1.98;;;;;;;;;;4964331;28;20035;-75
2023/03/07 06:20:59;;;;;;;8.88;1.45;;;;;;;;;;4961166;28;20043;-75
2023/03/07 06:23:26;;;;;;;6.85;1.08;;;;;;;;;;4958104;28;20110;-75
2023/03/07 06:25:52;;;;;;;8.95;0.75;;;;;;;;;;4966388;28;20034;-74
2023/03/07 06:28:18;;;;;;;13.32;1.38;;;;;;;;;;4962408;28;20042;-74
2023/03/07 06:30:44;;;;;;;11.30;1.13;;;;;;;;;;4959820;28;20039;-75
2023/03/07 06:33:10;;;;;;;8.05;1.70;;;;;;;;;;4959991;28;20086;-74
2023/03/07 06:35:39;;;;;;;8.10;1.23;;;;;;;;;;4954549;28;20038;-74
2023/03/07 06:38:06;;;;;;;7.88;1.88;;;;;;;;;;4956815;28;20500;-74
2023/03/07 06:40:32;;;;;;;6.80;1.00;;;;;;;;;;4957711;28;20027;-75
2023/03/07 06:42:58;;;;;;;10.18;1.23;;;;;;;;;;4963499;28;20027;-75
2023/03/07 06:45:24;;;;;;;3.70;0.93;;;;;;;;;;4959758;28;20102;-74
2023/03/07 06:47:50;;;;;;;3.85;0.60;;;;;;;;;;4958421;28;20106;-75
2023/03/07 06:50:17;;;;;;;6.30;1.10;;;;;;;;;;4958350;28;20047;-74
2023/03/07 06:52:43;;;;;;;5.95;0.57;;;;;;;;;;4964191;28;20113;-74
2023/03/07 06:55:09;;;;;;;4.20;0.68;;;;;;;;;;4980965;28;20402;-75
2023/03/07 06:57:35;;;;;;;6.18;0.82;;;;;;;;;;4978744;28;20034;-75
2023/03/07 07:00:03;;;;;;;6.50;0.70;;;;;;;;;;4983266;28;20439;-75
2023/03/07 07:02:29;;;;;;;5.15;0.70;;;;;;;;;;4980895;28;20035;-75
2023/03/07 07:04:56;;;;;;;9.93;0.63;;;;;;;;;;4975648;28;20085;-75
2023/03/07 07:07:22;;;;;;;6.93;0.55;;;;;;;;;;4947847;28;20133;-75
2023/03/07 07:09:48;;;;;;;11.65;1.02;;;;;;;;;;4962416;28;20467;-75
2023/03/07 07:12:14;;;;;;;6.05;1.08;;;;;;;;;;4974030;28;20333;-74
2023/03/07 07:14:40;;;;;;;9.07;1.08;;;;;;;;;;4980558;28;20034;-76
2023/03/07 07:17:07;;;;;;;4.35;0.60;;;;;;;;;;4979732;28;20047;-77
2023/03/07 07:19:33;;;;;;;9.45;1.20;;;;;;;;;;4984910;28;20483;-76
2023/03/07 07:21:59;;;;;;;5.53;1.25;;;;;;;;;;4981781;28;20049;-75
2023/03/07 07:24:25;;;;;;;6.78;0.73;;;;;;;;;;4981305;28;20470;-75
2023/03/07 07:26:51;;;;;;;4.47;0.70;;;;;;;;;;4980161;28;20085;-75
2023/03/07 07:29:17;;;;;;;7.05;2.10;;;;;;;;;;4986772;28;20095;-75
2023/03/07 07:31:43;;;;;;;8.75;3.63;;;;;;;;;;4986783;28;20046;-76
2023/03/07 07:34:12;;;;;;;11.32;1.30;;;;;;;;;;4985288;28;20034;-76
2023/03/07 07:36:38;;;;;;;4.80;1.38;;;;;;;;;;4982486;28;20030;-74
2023/03/07 07:39:05;;;;;;;5.57;1.08;;;;;;;;;;4959308;28;20045;-73
2023/03/07 07:41:32;;;;;;;5.30;0.73;;;;;;;;;;4979830;28;20042;-74
2023/03/07 07:43:58;;;;;;;6.35;1.13;;;;;;;;;;4981968;28;20134;-73
2023/03/07 07:46:27;;;;;;;3.13;0.88;;;;;;;;;;4980569;28;20031;-73
2023/03/07 07:48:53;;;;;;;4.40;0.70;;;;;;;;;;4977925;28;20088;-74
2023/03/07 07:51:19;;;;;;;8.85;0.68;;;;;;;;;;4981676;28;20035;-72
2023/03/07 07:53:45;;;;;;;4.93;1.55;;;;;;;;;;4959398;28;20058;-74
2023/03/07 07:56:11;;;;;;;5.10;1.38;;;;;;;;;;4962413;28;20034;-73
2023/03/07 07:58:37;;;;;;;7.68;1.35;;;;;;;;;;4959196;28;20039;-72
2023/03/07 08:01:12;;;;;;;8.50;1.35;;;;;;;;;;4961697;28;20030;-75
2023/03/07 08:03:38;;;;;;;4.40;1.33;;;;;;;;;;4965377;28;20471;-74
2023/03/07 08:06:04;;;;;;;10.70;1.20;;;;;;;;;;4960405;28;20499;-75
2023/03/07 08:08:30;;;;;;;9.00;1.10;;;;;;;;;;4963349;28;20483;-75
2023/03/07 08:10:56;;;;;;;5.60;1.42;;;;;;;;;;4965205;28;20492;-76
2023/03/07 08:13:22;;;;;;;6.90;1.63;;;;;;;;;;4963652;28;20063;-73
2023/03/07 08:15:48;;;;;;;10.18;1.45;;;;;;;;;;4962306;28;20372;-77
2023/03/07 08:18:14;;;;;;;7.05;2.30;;;;;;;;;;4962372;28;20066;-77
2023/03/07 08:20:40;;;;;;;5.82;1.85;;;;;;;;;;4966443;28;20382;-75
2023/03/07 08:23:06;;;;;;;4.00;1.05;;;;;;;;;;4963360;28;20404;-75
2023/03/07 08:25:33;;;;;;;7.45;0.90;;;;;;;;;;4964637;28;20030;-74
2023/03/07 08:28:02;;;;;;;10.90;1.40;;;;;;;;;;4963719;28;20062;-74
2023/03/07 08:30:28;;;;;;;7.20;0.95;;;;;;;;;;4961563;28;20090;-74
2023/03/07 08:32:55;;;;;;;9.75;1.10;;;;;;;;;;4960920;28;20026;-73
2023/03/07 08:35:21;;;;;;;7.47;0.68;;;;;;;;;;4957626;28;20038;-75
2023/03/07 08:37:48;;;;;;;6.07;0.95;;;;;;;;;;4952686;28;20058;-74
2023/03/07 08:40:15;;;;;;;6.22;1.23;;;;;;;;;;4961303;28;20087;-75
2023/03/07 08:42:41;;;;;;;3.45;1.45;;;;;;;;;;4962077;28;20373;-74
2023/03/07 08:45:08;;;;;;;6.15;0.90;;;;;;;;;;4955218;28;20124;-75
2023/03/07 08:47:34;;;;;;;8.25;1.20;;;;;;;;;;4959268;28;20049;-72
2023/03/07 08:50:00;;;;;;;5.10;0.77;;;;;;;;;;4955014;28;20429;-73
2023/03/07 08:52:26;;;;;;;9.98;1.10;;;;;;;;;;4958345;28;20137;-73
2023/03/07 08:54:52;;;;;;;11.90;1.00;;;;;;;;;;4979992;28;20382;-73
2023/03/07 08:57:18;;;;;;;8.98;0.90;;;;;;;;;;4979378;28;20702;-74
2023/03/07 08:59:44;;;;;;;3.25;1.13;;;;;;;;;;4980263;28;20345;-74
2023/03/07 09:02:11;;;;;;;2.53;0.70;;;;;;;;;;4965659;28;20578;-73
2023/03/07 09:04:37;;;;;;;5.43;1.23;;;;;;;;;;4966936;28;20067;-73
2023/03/07 09:07:03;;;;;;;8.07;0.50;;;;;;;;;;4978959;28;20065;-73
2023/03/07 09:09:30;;;;;;;67.35;33.28;;;;;;;;;;4978871;28;20480;-75
2023/03/07 09:11:56;;;;;;;4.15;1.75;;;;;;;;;;4989563;28;20030;-76
2023/03/07 09:14:22;;;;;;;5.13;0.85;;;;;;;;;;4986883;28;20496;-74
2023/03/07 09:16:48;;;;;;;1.33;0.65;;;;;;;;;;4986029;28;20081;-74
2023/03/07 09:19:15;;;;;;;4.45;0.95;;;;;;;;;;4989966;28;20041;-74
2023/03/07 09:21:41;;;;;;;9.88;0.80;;;;;;;;;;4989083;28;20022;-73
2023/03/07 09:24:07;;;;;;;8.63;1.15;;;;;;;;;;4988947;28;20042;-75
2023/03/07 09:26:34;;;;;;;5.10;0.90;;;;;;;;;;4969956;28;20383;-75
2023/03/07 09:29:00;;;;;;;4.25;0.82;;;;;;;;;;4989609;28;20176;-74
2023/03/07 09:31:26;;;;;;;4.35;0.90;;;;;;;;;;4984015;28;20135;-74
2023/03/07 09:33:52;;;;;;;6.38;1.33;;;;;;;;;;4988734;28;20099;-74
2023/03/07 09:36:19;;;;;;;4.25;0.85;;;;;;;;;;4990825;28;20485;-74
2023/03/07 09:38:46;;;;;;;9.25;2.13;;;;;;;;;;4986706;28;20040;-75
2023/03/07 09:41:12;;;;;;;9.65;1.65;;;;;;;;;;4986537;28;20421;-72
2023/03/07 09:43:57;;;;;;;9.30;1.23;;;;;;;;;;4977982;28;20027;-74
2023/03/07 09:46:33;;;;;;;13.40;2.63;;;;;;;;;;4969238;28;20101;-75
2023/03/07 09:49:07;;;;;;;4.65;1.10;;;;;;;;;;4983359;28;20092;-71
2023/03/07 09:51:38;;;;;;;3.33;0.90;;;;;;;;;;4982153;28;20039;-73
2023/03/07 09:54:17;;;;;;;10.27;1.20;;;;;;;;;;4970259;28;20471;-74
2023/03/07 09:56:54;;;;;;;6.32;1.60;;;;;;;;;;4968992;28;20134;-73
2023/03/07 09:59:34;;;;;;;7.00;0.95;;;;;;;;;;4977485;28;20042;-73
2023/03/07 10:02:19;;;;;;;7.63;1.00;;;;;;;;;;4983020;28;20455;-73
2023/03/07 10:04:45;;;;;;;8.02;1.55;;;;;;;;;;4985612;28;20130;-74
2023/03/07 10:07:14;;;;;;;13.20;1.42;;;;;;;;;;4981365;28;20555;-73
2023/03/07 10:09:40;;;;;;;3.85;1.02;;;;;;;;;;4980047;28;20493;-76
2023/03/07 10:12:45;;;;;;;5.60;0.88;;;;;;;;;;4983893;28;20035;-73
2023/03/07 10:15:11;;;;;;;8.70;1.38;;;;;;;;;;4928171;29;20044;-74
2023/03/07 10:17:56;;;;;;;10.88;1.45;;;;;;;;;;4924349;29;20104;-73
2023/03/07 10:20:25;;;;;;;5.10;1.00;;;;;;;;;;4959573;28;20057;-73
2023/03/07 10:22:57;;;;;;;7.18;1.02;;;;;;;;;;4986398;28;20049;-73
2023/03/07 10:25:26;;;;;;;6.20;1.30;;;;;;;;;;4976502;28;20109;-74
2023/03/07 10:27:55;;;;;;;7.93;1.73;;;;;;;;;;4981439;28;20101;-74
2023/03/07 10:30:21;;;;;;;7.50;1.33;;;;;;;;;;4989274;28;20061;-74
2023/03/07 10:32:57;;;;;;;8.07;0.93;;;;;;;;;;4990360;28;20037;-75
2023/03/07 10:35:24;;;;;;;5.93;1.05;;;;;;;;;;4992751;28;20019;-76
2023/03/07 10:37:55;;;;;;;7.30;1.05;;;;;;;;;;4987196;28;20049;-74
2023/03/07 10:40:24;;;;;;;7.77;1.40;;;;;;;;;;4982309;28;20125;-75
2023/03/07 10:42:51;;;;;;;8.02;1.05;;;;;;;;;;4981054;28;20037;-76
2023/03/07 10:45:17;;;;;;;7.95;1.02;;;;;;;;;;4980082;28;20034;-75
2023/03/07 10:47:43;;;;;;;6.95;0.90;;;;;;;;;;4983318;28;20498;-75
2023/03/07 10:50:09;;;;;;;4.30;0.70;;;;;;;;;;4979513;28;20445;-74
2023/03/07 10:52:40;;;;;;;6.35;0.82;;;;;;;;;;4992264;28;20031;-73
2023/03/07 10:55:24;;;;;;;6.88;0.75;;;;;;;;;;4992463;28;20170;-75
2023/03/07 10:57:50;;;;;;;3.67;1.02;;;;;;;;;;4990489;28;20106;-74
2023/03/07 11:00:17;;;;;;;6.55;0.73;;;;;;;;;;4990296;28;20061;-74
2023/03/07 11:02:45;;;;;;;7.35;1.00;;;;;;;;;;4991267;28;20041;-75
2023/03/07 11:05:23;;;;;;;4.28;0.80;;;;;;;;;;4989317;28;20030;-75
2023/03/07 11:07:49;;;;;;;11.35;1.25;;;;;;;;;;4990923;28;20117;-76
2023/03/07 11:10:24;;;;;;;7.65;0.85;;;;;;;;;;4990182;28;20041;-75
2023/03/07 11:12:50;;;;;;;7.47;0.82;;;;;;;;;;4992063;28;20042;-75
2023/03/07 11:15:23;;;;;;;4.90;1.20;;;;;;;;;;4990868;28;20022;-74
2023/03/07 11:17:49;;;;;;;9.85;1.85;;;;;;;;;;4975518;28;20093;-74
2023/03/07 11:20:21;;;;;;;4.32;1.33;;;;;;;;;;4987745;28;20084;-74
2023/03/07 11:22:48;;;;;;;5.70;1.02;;;;;;;;;;4989991;28;20034;-74
2023/03/07 11:25:25;;;;;;;12.10;1.58;;;;;;;;;;4986603;28;20101;-74
2023/03/07 11:27:51;;;;;;;4.63;1.13;;;;;;;;;;4988490;28;20030;-74
2023/03/07 11:30:17;;;;;;;7.80;1.35;;;;;;;;;;4988394;28;20033;-74
2023/03/07 11:32:59;;;;;;;11.25;1.38;;;;;;;;;;4973909;28;20739;-74
2023/03/07 11:35:42;;;;;;;7.65;1.50;;;;;;;;;;4972986;28;20399;-72
2023/03/07 11:38:27;;;;;;;9.23;1.15;;;;;;;;;;4981534;28;20054;-73
2023/03/07 11:41:02;;;;;;;10.30;1.88;;;;;;;;;;4981567;28;20058;-72
2023/03/07 11:43:43;;;;;;;9.38;1.63;;;;;;;;;;4982011;28;20026;-73
2023/03/07 11:46:14;;;;;;;12.65;2.17;;;;;;;;;;4982435;28;20068;-72
2023/03/07 11:48:46;;;;;;;8.02;1.73;;;;;;;;;;4982071;28;20041;-72
2023/03/07 11:51:25;;;;;;;18.73;1.65;;;;;;;;;;4980856;28;20040;-74
2023/03/07 11:53:54;;;;;;;5.88;1.42;;;;;;;;;;4982642;28;20104;-72
2023/03/07 11:56:23;;;;;;;12.52;1.70;;;;;;;;;;4981013;28;20037;-72
2023/03/07 11:58:56;;;;;;;10.02;1.10;;;;;;;;;;4980045;28;20117;-72
2023/03/07 12:01:25;;;;;;;69.18;36.35;;;;;;;;;;4980942;28;20053;-76
2023/03/07 12:03:54;;;;;;;25.50;9.23;;;;;;;;;;4984869;28;20023;-76
2023/03/07 12:06:20;;;;;;;13.48;1.42;;;;;;;;;;4981576;28;20537;-75
2023/03/07 12:08:54;;;;;;;9.18;1.02;;;;;;;;;;4981455;28;20042;-78
2023/03/07 12:11:20;;;;;;;8.75;1.42;;;;;;;;;;4983770;28;20117;-75
2023/03/07 12:13:58;;;;;;;7.72;1.00;;;;;;;;;;4982342;28;20045;-78
2023/03/07 12:16:27;;;;;;;5.10;1.30;;;;;;;;;;4979693;28;20030;-75
2023/03/07 12:18:56;;;;;;;11.25;1.17;;;;;;;;;;4986295;28;20160;-77
2023/03/07 12:21:28;;;;;;;12.10;1.60;;;;;;;;;;4991362;28;20038;-76
2023/03/07 12:23:59;;;;;;;12.07;1.42;;;;;;;;;;4989798;28;20022;-77
2023/03/07 12:26:35;;;;;;;5.93;0.95;;;;;;;;;;4991315;28;20022;-76
2023/03/07 12:29:03;;;;;;;7.03;1.52;;;;;;;;;;4987474;28;20030;-78
2023/03/07 12:31:37;;;;;;;9.57;2.03;;;;;;;;;;4962991;28;20034;-78
2023/03/07 12:34:09;;;;;;;5.25;1.05;;;;;;;;;;4990895;28;20030;-77
2023/03/07 12:36:38;;;;;;;9.38;1.00;;;;;;;;;;4990284;28;20035;-77
2023/03/07 12:39:18;;;;;;;6.93;0.70;;;;;;;;;;4988786;28;20038;-77
2023/03/07 12:41:51;;;;;;;4.57;0.73;;;;;;;;;;4971819;28;20419;-77
2023/03/07 12:44:26;;;;;;;8.57;0.98;;;;;;;;;;4977287;28;20030;-78
2023/03/07 12:46:56;;;;;;;7.03;0.98;;;;;;;;;;4976885;28;20062;-77
2023/03/07 12:49:22;;;;;;;7.03;0.75;;;;;;;;;;4982756;28;20034;-77
2023/03/07 12:51:52;;;;;;;6.75;1.20;;;;;;;;;;4988490;28;20077;-78
2023/03/07 12:54:25;;;;;;;6.20;1.05;;;;;;;;;;4990007;28;20133;-76
2023/03/07 12:57:01;;;;;;;7.72;1.45;;;;;;;;;;4989020;28;20364;-78
2023/03/07 12:59:28;;;;;;;9.55;0.98;;;;;;;;;;4990203;28;20034;-78
2023/03/07 13:01:59;;;;;;;10.55;1.10;;;;;;;;;;4988191;28;20034;-78
2023/03/07 13:04:28;;;;;;;9.85;1.15;;;;;;;;;;4972553;28;20034;-78
2023/03/07 13:06:55;;;;;;;8.95;1.10;;;;;;;;;;4989367;28;20067;-79
2023/03/07 13:09:23;;;;;;;9.35;1.00;;;;;;;;;;4989941;28;20089;-78
2023/03/07 13:12:08;;;;;;;6.85;1.00;;;;;;;;;;4983311;28;20419;-77
2023/03/07 13:14:40;;;;;;;5.18;1.08;;;;;;;;;;4990304;28;20027;-77
2023/03/07 13:17:10;;;;;;;2.67;1.52;;;;;;;;;;4974955;28;20039;-78
2023/03/07 13:19:37;;;;;;;8.77;1.30;;;;;;;;;;4991502;28;20403;-77
2023/03/07 13:22:16;;;;;;;5.68;0.98;;;;;;;;;;4994600;28;20026;-78
2023/03/07 13:24:49;;;;;;;4.15;0.80;;;;;;;;;;4976095;28;20023;-77
2023/03/07 13:27:15;;;;;;;7.43;0.85;;;;;;;;;;4976669;28;20113;-76
2023/03/07 13:29:59;;;;;;;5.90;0.88;;;;;;;;;;4992917;28;20117;-76
2023/03/07 13:32:44;;;;;;;6.50;1.05;;;;;;;;;;4988264;28;20093;-77
2023/03/07 13:35:10;;;;;;;4.25;0.80;;;;;;;;;;4993191;28;20037;-76
2023/03/07 13:37:48;;;;;;;7.47;0.80;;;;;;;;;;4993552;28;20042;-76
2023/03/07 13:40:22;;;;;;;7.38;1.10;;;;;;;;;;4991170;28;20037;-76
2023/03/07 13:42:48;;;;;;;5.47;0.80;;;;;;;;;;4993966;28;20085;-76
2023/03/07 13:45:33;;;;;;;6.35;0.80;;;;;;;;;;4969228;28;20113;-76
2023/03/07 13:47:59;;;;;;;7.05;0.90;;;;;;;;;;4974504;28;20046;-76
2023/03/07 13:50:45;;;;;;;10.48;1.25;;;;;;;;;;4969796;28;20034;-77
2023/03/07 13:53:17;;;;;;;3.75;1.08;;;;;;;;;;4980703;28;20105;-77
2023/03/07 13:56:09;;;;;;;5.82;0.93;;;;;;;;;;4993336;28;20097;-76
2023/03/07 13:58:38;;;;;;;10.90;1.50;;;;;;;;;;4972677;28;20299;-76
2023/03/07 14:01:06;;;;;;;6.28;1.08;;;;;;;;;;4986320;28;20077;-78
2023/03/07 14:03:39;;;;;;;8.02;1.00;;;;;;;;;;4977376;28;20232;-76
2023/03/07 14:06:11;;;;;;;7.25;0.98;;;;;;;;;;4993443;28;20434;-79
2023/03/07 14:08:37;;;;;;;3.92;0.60;;;;;;;;;;5004494;28;20109;-78
2023/03/07 14:11:04;;;;;;;7.82;1.33;;;;;;;;;;4990178;28;20121;-78
2023/03/07 14:13:49;;;;;;;5.70;1.50;;;;;;;;;;4970755;28;20027;-76
2023/03/07 14:16:25;;;;;;;5.95;0.77;;;;;;;;;;4976883;28;20054;-76
2023/03/07 14:18:51;;;;;;;7.82;0.90;;;;;;;;;;4979185;28;20443;-77
2023/03/07 14:21:17;;;;;;;5.07;0.80;;;;;;;;;;4992446;28;20027;-76
2023/03/07 14:23:50;;;;;;;3.22;0.60;;;;;;;;;;4992812;28;20101;-76
2023/03/07 14:26:19;;;;;;;1.90;0.50;;;;;;;;;;4998045;28;20038;-77
2023/03/07 14:28:50;;;;;;;5.28;1.10;;;;;;;;;;4991357;28;20081;-77
2023/03/07 14:31:21;;;;;;;4.55;0.65;;;;;;;;;;4980543;28;20050;-77
2023/03/07 14:33:48;;;;;;;4.07;0.80;;;;;;;;;;4993510;28;20061;-77
2023/03/07 14:36:28;;;;;;;7.13;0.88;;;;;;;;;;4975847;28;20298;-76
2023/03/07 14:38:56;;;;;;;10.18;1.08;;;;;;;;;;4975849;28;20045;-77
2023/03/07 14:41:36;;;;;;;2.35;0.50;;;;;;;;;;4991048;28;20049;-76
2023/03/07 14:44:23;;;;;;;7.57;1.10;;;;;;;;;;4993497;28;20053;-77
2023/03/07 14:47:04;;;;;;;2.92;0.70;;;;;;;;;;4973357;28;20113;-76